Apple Grove, North Carolina
Current Conditions -  °F | °C
As of 7:55 PM on Monday 26 Jan 2015 (Local Time) from KGEV Reporting Station
Light Snow Light Snow  
Wind Chill: 14°   Ceiling: 1100
Heat Index: 27°   Visibility: 10mi
Dew Point: 21°   Wind: 17mph
Humidity: 79%   Direction: 310°NW
Pressure: 29.7"   Gusts: 24mph
Location:  36.524°N, 81.538°W
Report Text: KGEV 270055Z AUTO 31015G21KT 10SM -SN OVC011 M03/M06 A2970 RMK AO2 T10301062
Loading
Personal Weather Stations






























Interactive Weather Map New forecast layout! Learn more

10-Day Weather Forecast

Advertisements
Track Severe Weather on mobile